Bar Harbor, Maine
Current Conditions -  °F | °C
As of 3:15 AM on Thursday 18 Dec 2014 (Local Time) from KBHB Reporting Station
Overcast Overcast  
Wind Chill: 26°   Ceiling: 1000
Heat Index: 34°   Visibility: 10mi
Dew Point: 34°   Wind: 9mph
Humidity: 100%   Direction: 320°NW
Pressure: 29.55"   Gusts: NA
Location:  44.39°N, 68.2°W
Report Text: KBHB 180815Z AUTO 32008KT 10SM BKN010 BKN028 OVC033 01/01 A2955 RMK AO1
Loading
Personal Weather Stations






























Interactive Weather Map New forecast layout! Learn more

10-Day Weather Forecast

Advertisements
Track Severe Weather on mobile